Time;durP1;ratioP1;P1;durP2;ratioP2;P2;SDS_P1;SDS_P2;PMS_P1;PMS_P2;Temp;Humidity;BMP_temperature;BMP_pressure;BME280_temperature;BME280_humidity;BME280_pressure;Samples;Min_cycle;Max_cycle;Signal;HPM_P1;HPM_P2
2022/11/05 00:09:28;;;;;;;1999.90;999.90;;;;;;;5.94;100.00;93772.63;4983906;28;20186;-64
2022/11/05 00:17:06;;;;;;;1999.90;999.90;;;;;;;5.91;100.00;93884.50;5016750;28;20243;-60
2022/11/05 00:19:31;;;;;;;1999.90;999.90;;;;;;;5.90;100.00;93891.09;4999374;28;20201;-60
2022/11/05 00:27:24;;;;;;;1999.90;999.90;;;;;;;5.94;100.00;93910.78;5016927;28;20517;-59
2022/11/05 00:29:50;;;;;;;1999.90;999.90;;;;;;;5.94;100.00;93903.38;4997893;28;20181;-63
2022/11/05 00:32:15;;;;;;;1999.90;999.90;;;;;;;5.95;100.00;93909.59;4999729;28;20208;-66
2022/11/05 00:34:40;;;;;;;1999.90;999.90;;;;;;;5.95;100.00;93921.19;4999131;28;20247;-66
2022/11/05 00:37:06;;;;;;;1999.90;999.90;;;;;;;5.96;100.00;93925.44;4999576;28;20208;-66
2022/11/05 00:39:31;;;;;;;1999.90;999.90;;;;;;;5.96;100.00;93938.19;4999127;28;20233;-67
2022/11/05 00:50:09;;;;;;;1999.90;999.90;;;;;;;5.96;100.00;93925.44;5016570;28;20196;-59
2022/11/05 00:55:18;;;;;;;1999.90;999.90;;;;;;;5.94;100.00;93918.91;5016571;28;20172;-58
2022/11/05 00:57:44;;;;;;;1999.90;999.90;;;;;;;5.89;100.00;93916.63;4998839;28;20204;-58
2022/11/05 01:00:10;;;;;;;1999.90;999.90;;;;;;;5.90;100.00;93904.63;4999499;28;20272;-59
2022/11/05 01:02:36;;;;;;;1999.90;999.90;;;;;;;5.88;100.00;93896.16;4999172;28;20174;-59
2022/11/05 01:05:01;;;;;;;1999.90;999.90;;;;;;;5.90;100.00;93896.50;4998385;28;20198;-77
2022/11/05 01:07:26;;;;;;;1999.90;999.90;;;;;;;5.89;100.00;93892.25;4998268;28;20176;-63
2022/11/05 01:09:52;;;;;;;1999.90;999.90;;;;;;;5.90;100.00;93891.09;4998514;28;20181;-59
2022/11/05 01:12:17;;;;;;;1999.90;999.90;;;;;;;5.89;100.00;93897.66;4998450;28;20264;-59
2022/11/05 01:14:42;;;;;;;1999.90;999.90;;;;;;;5.88;100.00;93898.84;4998588;28;20178;-58
2022/11/05 01:17:08;;;;;;;1999.90;999.90;;;;;;;5.86;100.00;93891.13;4997693;28;20208;-58
2022/11/05 01:19:33;;;;;;;1999.90;999.90;;;;;;;5.86;100.00;93893.06;4998003;28;20171;-59
2022/11/05 01:21:58;;;;;;;1999.90;999.90;;;;;;;5.85;100.00;93895.03;4998363;28;20179;-58
2022/11/05 01:24:24;;;;;;;1999.90;999.90;;;;;;;5.84;100.00;93901.63;4998726;28;20219;-59
2022/11/05 01:26:49;;;;;;;1999.90;999.90;;;;;;;5.81;100.00;93897.03;4998372;28;20197;-60
2022/11/05 01:29:15;;;;;;;1999.90;999.90;;;;;;;5.80;100.00;93897.41;4997866;28;20233;-59
2022/11/05 01:31:40;;;;;;;1999.90;999.90;;;;;;;5.78;100.00;93905.16;4997794;28;20175;-59
2022/11/05 01:34:05;;;;;;;1999.90;999.90;;;;;;;5.75;100.00;93900.56;4998118;28;20173;-59
2022/11/05 01:36:31;;;;;;;1999.90;999.90;;;;;;;5.71;100.00;93902.53;4998151;28;20290;-60
2022/11/05 01:38:56;;;;;;;1999.90;999.90;;;;;;;5.67;100.00;93901.84;4998311;28;20220;-59
2022/11/05 01:41:21;;;;;;;1999.90;999.90;;;;;;;5.69;100.00;93892.13;4998013;28;20180;-59
2022/11/05 01:43:53;;;;;;;1999.90;999.90;;;;;;;5.71;100.00;93886.31;4997924;28;20254;-73
2022/11/05 01:46:26;;;;;;;1999.90;999.90;;;;;;;5.73;100.00;93881.25;4997684;28;20263;-67
2022/11/05 01:48:54;;;;;;;1999.90;999.90;;;;;;;5.73;100.00;93878.53;4997652;28;20239;-66
2022/11/05 01:51:25;;;;;;;1999.90;999.90;;;;;;;5.75;100.00;93882.38;4997758;28;20175;-67
2022/11/05 01:53:54;;;;;;;1999.90;999.90;;;;;;;5.75;100.00;93884.31;4998437;28;20268;-66
2022/11/05 01:56:22;;;;;;;1999.90;999.90;;;;;;;5.81;100.00;93871.88;4997651;28;20203;-66
2022/11/05 01:58:52;;;;;;;1999.90;999.90;;;;;;;5.83;100.00;93869.53;4997367;28;20639;-66
2022/11/05 02:01:18;;;;;;;1999.90;999.90;;;;;;;5.84;100.00;93866.41;4997653;28;20208;-59
2022/11/05 02:03:45;;;;;;;1999.90;999.90;;;;;;;5.84;100.00;93869.13;4997536;28;20227;-76
2022/11/05 02:06:12;;;;;;;1999.90;999.90;;;;;;;5.86;100.00;93868.69;4998100;28;20182;-75
2022/11/05 02:09:01;;;;;;;1999.90;999.90;;;;;;;5.86;100.00;93857.84;4997533;28;20171;-75
2022/11/05 02:11:27;;;;;;;1999.90;999.90;;;;;;;5.83;100.00;93858.69;5014866;28;20204;-73
2022/11/05 02:13:53;;;;;;;1999.90;999.90;;;;;;;5.78;100.00;93861.81;4997497;28;20217;-73
2022/11/05 02:16:42;;;;;;;1999.90;999.90;;;;;;;5.78;100.00;93848.28;4997309;28;20203;-74
2022/11/05 02:19:30;;;;;;;1999.90;999.90;;;;;;;5.74;100.00;93855.69;4998312;28;20258;-60
2022/11/05 02:22:35;;;;;;;1999.90;999.90;;;;;;;5.68;100.00;93865.47;4997001;28;20183;-60
2022/11/05 02:25:31;;;;;;;1999.90;999.90;;;;;;;5.61;100.00;93868.28;4996994;28;20283;-60
2022/11/05 02:28:15;;;;;;;1999.90;999.90;;;;;;;5.52;100.00;93865.31;4997950;28;20167;-60
2022/11/05 02:30:55;;;;;;;1999.90;999.90;;;;;;;5.50;100.00;93863.00;4996894;28;20601;-60
2022/11/05 02:33:40;;;;;;;1999.90;999.90;;;;;;;5.46;100.00;93864.25;4997538;28;20176;-60
2022/11/05 02:36:19;;;;;;;1999.90;999.90;;;;;;;5.39;100.00;93861.63;4997394;28;20302;-60
2022/11/05 02:38:53;;;;;;;1999.90;999.90;;;;;;;5.35;100.00;93863.63;4996971;28;20220;-60
2022/11/05 02:41:37;;;;;;;1999.90;999.90;;;;;;;5.29;100.00;93862.53;4997122;28;20176;-63
2022/11/05 02:44:32;;;;;;;1999.90;999.90;;;;;;;5.21;100.00;93861.84;4997752;28;20176;-64
2022/11/05 02:47:07;;;;;;;1999.90;999.90;;;;;;;5.18;100.00;93870.03;4997960;28;20171;-64
2022/11/05 02:49:46;;;;;;;1999.90;999.90;;;;;;;5.11;100.00;93872.81;4997725;28;20171;-65
2022/11/05 02:52:21;;;;;;;1999.90;999.90;;;;;;;5.06;100.00;93870.56;4997361;28;20168;-63
2022/11/05 02:54:57;;;;;;;1999.90;999.90;;;;;;;5.03;100.00;93874.09;5001455;28;20165;-64
2022/11/05 02:57:23;;;;;;;1999.90;999.90;;;;;;;5.04;100.00;93867.50;5001507;28;20669;-64
2022/11/05 02:59:58;;;;;;;1999.90;999.90;;;;;;;5.03;100.00;93861.31;5000922;28;20226;-75
2022/11/05 03:02:24;;;;;;;1999.90;999.90;;;;;;;5.12;100.00;93847.28;5000470;28;20247;-75
2022/11/05 03:04:49;;;;;;;1999.90;999.90;;;;;;;5.13;100.00;93855.00;5000850;28;20223;-73
2022/11/05 03:07:39;;;;;;;1999.90;999.90;;;;;;;5.17;100.00;93838.75;5001212;28;20172;-73
2022/11/05 03:10:12;;;;;;;1999.90;999.90;;;;;;;5.21;100.00;93840.22;5001251;28;20179;-73
2022/11/05 03:12:57;;;;;;;1999.90;999.90;;;;;;;5.26;100.00;93830.88;5001220;28;20183;-74
2022/11/05 03:15:44;;;;;;;1999.90;999.90;;;;;;;5.32;100.00;93819.19;5000624;28;20268;-64
2022/11/05 03:18:24;;;;;;;1999.90;999.90;;;;;;;5.39;100.00;93819.09;5000523;28;20183;-73
2022/11/05 03:20:59;;;;;;;1999.90;999.90;;;;;;;5.47;100.00;93811.63;5001336;28;20175;-73
2022/11/05 03:23:41;;;;;;;1999.90;999.90;;;;;;;5.50;100.00;93808.13;5000450;28;20176;-73
2022/11/05 03:26:30;;;;;;;1999.90;999.90;;;;;;;5.60;100.00;93797.13;5000211;28;20184;-73
2022/11/05 03:29:01;;;;;;;1999.90;999.90;;;;;;;5.66;100.00;93802.84;5000315;28;20196;-72
2022/11/05 03:31:29;;;;;;;1999.90;999.90;;;;;;;5.67;100.00;93807.84;5000897;28;20167;-72
2022/11/05 03:33:57;;;;;;;1999.90;999.90;;;;;;;5.70;100.00;93806.25;5017327;28;20252;-64
2022/11/05 03:36:29;;;;;;;1999.90;999.90;;;;;;;5.73;100.00;93802.72;5000058;28;20192;-64
2022/11/05 03:38:58;;;;;;;1999.90;999.90;;;;;;;5.74;100.00;93812.38;5000343;28;20326;-64
2022/11/05 03:41:24;;;;;;;1999.90;999.90;;;;;;;5.74;100.00;93812.38;5000497;28;20183;-65
2022/11/05 03:43:56;;;;;;;1999.90;999.90;;;;;;;5.77;100.00;93816.97;4999651;28;20164;-65
2022/11/05 03:46:29;;;;;;;1999.90;999.90;;;;;;;5.77;100.00;93822.38;5000563;28;20246;-64
2022/11/05 03:48:57;;;;;;;1999.90;999.90;;;;;;;5.79;100.00;93826.22;5000577;28;20173;-64
2022/11/05 03:51:34;;;;;;;1999.90;999.90;;;;;;;5.81;100.00;93828.53;5000084;28;20180;-58
2022/11/05 03:54:02;;;;;;;1999.90;999.90;;;;;;;5.84;100.00;93830.44;5000396;28;20272;-74
2022/11/05 03:56:58;;;;;;;1999.90;999.90;;;;;;;5.87;100.00;93829.63;4999798;28;20244;-74
2022/11/05 03:59:24;;;;;;;1999.90;999.90;;;;;;;5.97;100.00;93828.66;4991508;28;20201;-74
2022/11/05 04:01:50;;;;;;;1999.90;999.90;;;;;;;5.99;100.00;93829.81;4999868;28;20214;-74
2022/11/05 04:04:15;;;;;;;1999.90;999.90;;;;;;;6.02;100.00;93828.22;4999140;28;20224;-74
2022/11/05 04:14:53;;;;;;;1999.90;999.90;;;;;;;6.14;100.00;93833.03;5017169;28;20180;-71
2022/11/05 04:17:19;;;;;;;1999.90;999.90;;;;;;;6.16;100.00;93838.81;5000265;28;20233;-71
2022/11/05 04:25:18;;;;;;;1999.90;999.90;;;;;;;6.26;100.00;93835.13;5016923;28;20690;-71
2022/11/05 04:27:45;;;;;;;1999.90;999.90;;;;;;;6.30;100.00;93833.13;4998923;28;20180;-73
2022/11/05 04:30:17;;;;;;;1999.90;999.90;;;;;;;6.30;100.00;93833.13;4999189;28;20177;-63
2022/11/05 04:32:55;;;;;;;1999.90;999.90;;;;;;;6.32;100.00;93831.56;4999442;28;20182;-69
2022/11/05 04:35:21;;;;;;;1999.90;999.90;;;;;;;6.33;100.00;93826.88;4999213;28;20273;-70
2022/11/05 04:37:46;;;;;;;1999.90;999.90;;;;;;;6.35;100.00;93830.69;4998478;28;20310;-69
2022/11/05 04:40:11;;;;;;;1999.90;999.90;;;;;;;6.35;100.00;93819.84;4998681;28;20180;-73
2022/11/05 04:42:36;;;;;;;1999.90;999.90;;;;;;;6.38;100.00;93823.72;4998726;28;20177;-74
2022/11/05 04:45:02;;;;;;;1999.90;999.90;;;;;;;6.42;100.00;93813.56;4998734;28;20543;-73
2022/11/05 04:47:28;;;;;;;1999.90;999.90;;;;;;;6.45;100.00;93815.44;4999377;28;20178;-67
2022/11/05 04:49:53;;;;;;;1999.90;999.90;;;;;;;6.49;100.00;93808.75;4998945;28;20187;-67
2022/11/05 04:52:18;;;;;;;1999.90;999.90;;;;;;;6.47;100.00;93811.13;4999360;28;20546;-66
2022/11/05 04:54:44;;;;;;;1999.90;999.90;;;;;;;6.51;100.00;93814.56;4998792;28;20535;-67
2022/11/05 04:57:09;;;;;;;1999.90;999.90;;;;;;;6.57;100.00;93809.41;4998868;28;20209;-67
2022/11/05 04:59:34;;;;;;;1999.90;999.90;;;;;;;6.60;100.00;93805.88;4999368;28;20178;-68
2022/11/05 05:02:00;;;;;;;1999.90;999.90;;;;;;;6.60;100.00;93801.19;4998326;28;20182;-66
2022/11/05 05:04:25;;;;;;;1999.90;999.90;;;;;;;6.63;100.00;93791.47;4998275;28;20205;-72
2022/11/05 05:06:51;;;;;;;1999.90;999.90;;;;;;;6.65;100.00;93789.09;4999150;28;20282;-61
2022/11/05 05:09:16;;;;;;;1999.90;999.90;;;;;;;6.64;100.00;93782.16;4998871;28;20276;-58
2022/11/05 05:11:41;;;;;;;1999.90;999.90;;;;;;;6.66;100.00;93787.91;4998465;28;20181;-59
2022/11/05 05:14:07;;;;;;;1999.90;999.90;;;;;;;6.67;100.00;93784.03;4998402;28;20178;-59
2022/11/05 05:16:32;;;;;;;1999.90;999.90;;;;;;;6.67;100.00;93773.94;4997826;28;20560;-58
2022/11/05 05:18:58;;;;;;;1999.90;999.90;;;;;;;6.69;100.00;93768.88;4997862;28;20180;-58
2022/11/05 05:21:39;;;;;;;1999.90;999.90;;;;;;;6.71;100.00;93776.59;4998606;28;20179;-58
2022/11/05 05:24:07;;;;;;;1999.90;999.90;;;;;;;6.72;100.00;93768.03;4999045;28;20181;-67
2022/11/05 05:26:34;;;;;;;1999.90;999.90;;;;;;;6.73;100.00;93763.38;4998399;28;20217;-58
2022/11/05 05:29:00;;;;;;;1999.90;999.90;;;;;;;6.73;100.00;93749.81;4998035;28;20196;-59
2022/11/05 05:31:25;;;;;;;1999.90;999.90;;;;;;;6.74;100.00;93764.91;4997724;28;20215;-58
2022/11/05 05:33:54;;;;;;;1999.90;999.90;;;;;;;6.74;100.00;93760.25;4998021;28;20172;-58
2022/11/05 05:36:20;;;;;;;1999.90;999.90;;;;;;;6.74;100.00;93751.34;4997869;28;20275;-59
2022/11/05 05:38:46;;;;;;;1999.90;999.90;;;;;;;6.75;100.00;93745.47;4997501;28;20236;-59
2022/11/05 05:41:11;;;;;;;1999.90;999.90;;;;;;;6.76;100.00;93747.03;4998057;28;20176;-72
2022/11/05 05:43:36;;;;;;;1999.90;999.90;;;;;;;6.77;100.00;93742.34;4997857;28;20226;-59
2022/11/05 05:46:07;;;;;;;1999.90;999.90;;;;;;;6.74;100.00;93735.09;4998124;28;20196;-69
2022/11/05 05:48:33;;;;;;;1999.90;999.90;;;;;;;6.71;100.00;93733.19;4997776;28;20256;-71
2022/11/05 05:51:03;;;;;;;1999.90;999.90;;;;;;;6.73;100.00;93734.31;4998181;28;20272;-72
2022/11/05 05:53:29;;;;;;;1999.90;999.90;;;;;;;6.76;100.00;93738.13;4998046;28;20253;-71
2022/11/05 05:55:55;;;;;;;1999.90;999.90;;;;;;;6.75;100.00;93733.88;4997954;28;20197;-72
2022/11/05 05:58:21;;;;;;;1999.90;999.90;;;;;;;6.76;100.00;93735.41;4998213;28;20173;-71
2022/11/05 06:00:47;;;;;;;1999.90;999.90;;;;;;;6.78;100.00;93727.63;4997837;28;20174;-58
2022/11/05 06:03:12;;;;;;;1999.90;999.90;;;;;;;6.80;100.00;93736.88;4997910;28;20178;-62
2022/11/05 06:05:37;;;;;;;1999.90;999.90;;;;;;;6.79;100.00;93843.84;4997548;28;20193;-63
2022/11/05 06:08:03;;;;;;;1999.90;999.90;;;;;;;6.76;100.00;93835.78;4997501;28;20217;-62
2022/11/05 06:10:28;;;;;;;1999.90;999.90;;;;;;;6.79;100.00;93832.22;4997478;28;20323;-61
2022/11/05 06:12:54;;;;;;;1999.90;999.90;;;;;;;6.82;100.00;93831.41;4997049;28;20178;-62
2022/11/05 06:15:19;;;;;;;1999.90;999.90;;;;;;;6.81;100.00;93827.13;4997259;28;20280;-63
2022/11/05 06:17:45;;;;;;;1999.90;999.90;;;;;;;6.84;100.00;93820.88;4997379;28;20200;-66
2022/11/05 06:20:12;;;;;;;1999.90;999.90;;;;;;;6.87;100.00;93820.06;4997450;28;20178;-67
2022/11/05 06:22:37;;;;;;;1999.90;999.90;;;;;;;6.88;100.00;93827.00;4997331;28;20245;-68
2022/11/05 06:25:04;;;;;;;1999.90;999.90;;;;;;;6.91;100.00;93828.88;4997365;28;20183;-68
2022/11/05 06:27:29;;;;;;;1999.90;999.90;;;;;;;6.92;100.00;93833.13;4997640;28;20177;-67
2022/11/05 06:29:55;;;;;;;1999.90;999.90;;;;;;;6.93;100.00;93829.25;5001404;28;20235;-66
2022/11/05 06:32:20;;;;;;;1999.90;999.90;;;;;;;6.96;100.00;93828.41;5001388;28;20211;-65
2022/11/05 06:34:45;;;;;;;1999.90;999.90;;;;;;;6.97;100.00;93821.78;5001094;28;20174;-67
2022/11/05 06:37:11;;;;;;;1999.90;999.90;;;;;;;7.00;100.00;93820.19;5001484;28;20206;-70
2022/11/05 06:39:36;;;;;;;1999.90;999.90;;;;;;;7.03;100.00;93820.09;5000867;28;20230;-68
2022/11/05 06:42:02;;;;;;;1999.90;999.90;;;;;;;7.07;100.00;93815.41;5001830;28;20189;-68
2022/11/05 06:44:27;;;;;;;1999.90;999.90;;;;;;;7.08;100.00;93816.91;5001066;28;20278;-68
2022/11/05 06:46:52;;;;;;;1999.90;999.90;;;;;;;7.10;100.00;93817.25;5001490;28;20526;-68
2022/11/05 06:49:18;;;;;;;1999.90;999.90;;;;;;;7.10;100.00;93828.09;5001350;28;20187;-69
2022/11/05 06:51:44;;;;;;;1999.90;999.90;;;;;;;7.11;100.00;93829.66;5001472;28;20185;-68
2022/11/05 06:54:09;;;;;;;1999.90;999.90;;;;;;;7.11;100.00;93829.66;5001495;28;20175;-66
2022/11/05 06:56:34;;;;;;;1999.90;999.90;;;;;;;7.13;100.00;93829.97;5001241;28;20233;-62
2022/11/05 06:59:00;;;;;;;1999.90;999.90;;;;;;;7.15;100.00;93835.00;5000779;28;20182;-67
2022/11/05 07:01:25;;;;;;;1999.90;999.90;;;;;;;7.20;100.00;93829.84;5001713;28;20185;-67
2022/11/05 07:03:50;;;;;;;1999.90;999.90;;;;;;;7.25;100.00;93826.63;5000781;28;20194;-68
2022/11/05 07:06:16;;;;;;;1999.90;999.90;;;;;;;7.27;100.00;93829.69;5000551;28;20186;-70
2022/11/05 07:08:41;;;;;;;1999.90;999.90;;;;;;;7.32;100.00;93831.91;5000563;28;20184;-69
2022/11/05 07:11:06;;;;;;;1999.90;999.90;;;;;;;7.34;100.00;93828.75;5000541;28;20182;-66
2022/11/05 07:13:32;;;;;;;1999.90;999.90;;;;;;;7.33;100.00;93838.09;5001006;28;20179;-58
2022/11/05 07:15:58;;;;;;;1999.90;999.90;;;;;;;7.33;100.00;93833.44;5000696;28;20196;-66
2022/11/05 07:18:23;;;;;;;1999.90;999.90;;;;;;;7.40;100.00;93837.94;5000347;28;20276;-67
2022/11/05 07:20:49;;;;;;;1999.90;999.90;;;;;;;7.44;100.00;93828.56;5000949;28;20182;-66
2022/11/05 07:23:14;;;;;;;1999.90;999.90;;;;;;;7.45;100.00;93835.50;5000296;28;20181;-66
2022/11/05 07:25:41;;;;;;;1999.90;999.90;;;;;;;7.52;100.00;93834.59;5000228;28;20174;-67
2022/11/05 07:28:08;;;;;;;1999.90;999.90;;;;;;;7.52;100.00;93838.06;5000301;28;20181;-67
2022/11/05 07:30:34;;;;;;;1999.90;999.90;;;;;;;7.57;100.00;93836.81;5000278;28;20176;-66
2022/11/05 07:33:00;;;;;;;1999.90;999.90;;;;;;;7.63;100.00;93840.53;5000374;28;20185;-74
2022/11/05 07:35:27;;;;;;;1999.90;999.90;;;;;;;7.68;100.00;93829.94;5000340;28;20179;-59
2022/11/05 07:37:53;;;;;;;1999.90;999.90;;;;;;;7.78;100.00;93831.66;5000082;28;20235;-60
2022/11/05 07:40:20;;;;;;;1999.90;999.90;;;;;;;7.87;100.00;93823.66;4999737;28;20197;-60
2022/11/05 07:42:50;;;;;;;1999.90;999.90;;;;;;;7.99;100.00;93824.94;5000009;28;20180;-60
2022/11/05 07:45:16;;;;;;;1999.90;999.90;;;;;;;8.11;100.00;93811.44;5000568;28;20177;-62
2022/11/05 07:47:50;;;;;;;1999.90;999.90;;;;;;;8.24;100.00;93814.28;5000159;28;20208;-62
2022/11/05 07:50:18;;;;;;;1999.90;999.90;;;;;;;8.32;100.00;93810.94;5000770;28;20221;-74
2022/11/05 07:52:44;;;;;;;1999.90;999.90;;;;;;;8.44;100.00;93818.41;4999830;28;20178;-70
2022/11/05 07:55:12;;;;;;;1999.90;999.90;;;;;;;8.64;100.00;93813.59;4999663;28;20182;-72
2022/11/05 07:57:47;;;;;;;1999.90;999.90;;;;;;;8.83;100.00;93812.69;4999620;28;20233;-73
2022/11/05 08:00:21;;;;;;;1999.90;999.90;;;;;;;9.00;100.00;93824.28;4999752;28;20210;-72
2022/11/05 08:03:00;;;;;;;1999.90;999.90;;;;;;;9.14;100.00;93841.00;5000311;28;20174;-73
2022/11/05 08:05:26;;;;;;;1999.90;999.90;;;;;;;9.32;100.00;93857.59;4999565;28;20198;-74
2022/11/05 08:07:56;;;;;;;1999.90;999.90;;;;;;;9.53;100.00;93870.63;5000235;28;20222;-77
2022/11/05 08:10:23;;;;;;;1999.90;999.90;;;;;;;9.70;100.00;93887.66;5000035;28;20191;-68
2022/11/05 08:12:48;;;;;;;1999.90;999.90;;;;;;;9.77;100.00;93907.25;5000145;28;20302;-59
2022/11/05 08:15:14;;;;;;;1999.90;999.90;;;;;;;9.82;100.00;93939.47;4999960;28;20195;-59
2022/11/05 08:17:40;;;;;;;1999.90;999.90;;;;;;;9.90;100.00;93973.50;4999750;28;20230;-60
2022/11/05 08:20:06;;;;;;;1999.90;999.90;;;;;;;10.01;100.00;94009.41;4999092;28;20274;-59
2022/11/05 08:22:31;;;;;;;1999.90;999.90;;;;;;;9.90;100.00;94047.13;4999147;28;20251;-59
2022/11/05 08:24:57;;;;;;;1999.90;999.90;;;;;;;9.87;100.00;94086.13;4998799;28;20190;-59
2022/11/05 08:27:22;;;;;;;1999.90;999.90;;;;;;;9.88;100.00;94125.84;4999390;28;20270;-59
2022/11/05 08:29:47;;;;;;;1999.90;999.90;;;;;;;9.87;100.00;94161.72;4999307;28;20168;-59
2022/11/05 08:32:13;;;;;;;1999.90;999.90;;;;;;;9.86;100.00;94195.63;4999317;28;20188;-59
2022/11/05 08:34:39;;;;;;;1999.90;999.90;;;;;;;9.85;100.00;94245.91;4999151;28;20262;-60
2022/11/05 08:37:04;;;;;;;1999.90;999.90;;;;;;;9.72;100.00;94285.94;4998737;28;20211;-60
2022/11/05 08:39:29;;;;;;;1999.90;999.90;;;;;;;9.65;100.00;94341.38;4999008;28;20223;-59
2022/11/05 08:41:55;;;;;;;1999.90;999.90;;;;;;;9.59;100.00;94375.75;4999016;28;20180;-59
2022/11/05 08:44:20;;;;;;;1999.90;999.90;;;;;;;9.58;100.00;94385.13;4998874;28;20175;-59
2022/11/05 08:46:45;;;;;;;1999.90;999.90;;;;;;;9.48;100.00;94405.19;5016009;28;20186;-62
2022/11/05 08:49:11;;;;;;;1999.90;999.90;;;;;;;9.48;100.00;94396.28;4999572;28;20175;-69
2022/11/05 08:51:36;;;;;;;1999.90;999.90;;;;;;;9.40;100.00;94403.81;4998542;28;20176;-67
2022/11/05 08:54:01;;;;;;;1999.90;999.90;;;;;;;9.41;100.00;94399.91;4999580;28;20179;-69
2022/11/05 08:56:26;;;;;;;1999.90;999.90;;;;;;;9.41;100.00;94397.19;4998871;28;20254;-69
2022/11/05 08:58:52;;;;;;;1999.90;999.90;;;;;;;9.43;100.00;94383.91;4998692;28;20210;-69
2022/11/05 09:01:17;;;;;;;1999.90;999.90;;;;;;;9.41;100.00;94383.56;4998704;28;20222;-68
2022/11/05 09:03:43;;;;;;;1999.90;999.90;;;;;;;9.43;100.00;94377.66;4998308;28;20333;-68
2022/11/05 09:06:08;;;;;;;1999.90;999.90;;;;;;;9.40;100.00;94379.28;4998237;28;20175;-62
2022/11/05 09:08:33;;;;;;;1999.90;999.90;;;;;;;9.39;100.00;94372.31;4998883;28;20587;-70
2022/11/05 09:10:59;;;;;;;1999.90;999.90;;;;;;;9.48;100.00;94355.41;4999028;28;20179;-69
2022/11/05 09:13:25;;;;;;;1999.90;999.90;;;;;;;9.55;100.00;94339.66;4998187;28;20232;-71
2022/11/05 09:15:50;;;;;;;1999.90;999.90;;;;;;;9.56;100.00;94332.25;4998436;28;20184;-68
2022/11/05 09:18:18;;;;;;;1999.90;999.90;;;;;;;9.61;100.00;94326.28;4998213;28;20242;-68
2022/11/05 09:20:43;;;;;;;1999.90;999.90;;;;;;;9.66;100.00;94326.56;4998315;28;20225;-66
2022/11/05 09:23:10;;;;;;;1999.90;999.90;;;;;;;9.59;100.00;94326.72;4998539;28;20270;-71
2022/11/05 09:25:35;;;;;;;1999.90;999.90;;;;;;;9.47;100.00;94341.00;4998089;28;20174;-71
2022/11/05 09:28:09;;;;;;;1999.90;999.90;;;;;;;9.34;100.00;94352.97;4998354;28;20183;-69
2022/11/05 09:30:39;;;;;;;1999.90;999.90;;;;;;;9.25;100.00;94366.38;4998281;28;20211;-65
2022/11/05 09:33:04;;;;;;;1999.90;999.90;;;;;;;9.17;100.00;94365.75;4997525;28;20194;-79
2022/11/05 09:35:29;;;;;;;1999.90;999.90;;;;;;;9.18;100.00;94356.38;4998822;28;20180;-68
2022/11/05 09:37:55;;;;;;;1999.90;999.90;;;;;;;9.21;100.00;94350.09;4997795;28;20297;-69
2022/11/05 09:40:20;;;;;;;1999.90;999.90;;;;;;;9.39;100.00;94345.06;4997567;28;20256;-72
2022/11/05 09:42:51;;;;;;;1999.90;999.90;;;;;;;9.58;100.00;94340.78;4998120;28;20222;-66
2022/11/05 09:45:19;;;;;;;1999.90;999.90;;;;;;;9.63;100.00;94332.88;4997306;28;20183;-59
2022/11/05 09:48:04;;;;;;;1999.90;999.90;;;;;;;9.58;100.00;94338.81;4998068;28;20179;-59
2022/11/05 09:50:36;;;;;;;1999.90;999.90;;;;;;;9.54;100.00;94340.84;4997696;28;20167;-59
2022/11/05 09:53:03;;;;;;;1999.90;999.90;;;;;;;9.50;100.00;94344.81;4997185;28;20175;-59
2022/11/05 09:55:36;;;;;;;1999.90;999.90;;;;;;;9.43;100.00;94343.03;4997607;28;20229;-58
2022/11/05 09:58:13;;;;;;;1999.90;999.90;;;;;;;9.31;100.00;94354.56;4997878;28;20214;-59
2022/11/05 10:00:39;;;;;;;1999.90;999.90;;;;;;;9.31;100.00;94354.56;4998115;28;20179;-70
2022/11/05 10:03:12;;;;;;;1999.90;999.90;;;;;;;9.37;100.00;94347.41;4997919;28;20226;-73
2022/11/05 10:05:39;;;;;;;1999.90;999.90;;;;;;;9.37;100.00;94317.44;4997306;28;20249;-73
2022/11/05 10:08:21;;;;;;;1999.90;999.90;;;;;;;9.40;100.00;94313.91;4997023;28;20266;-74
2022/11/05 10:10:51;;;;;;;1999.90;999.90;;;;;;;9.52;100.00;94294.19;4997291;28;20166;-73
2022/11/05 10:13:33;;;;;;;1999.90;999.90;;;;;;;9.67;100.00;94287.22;4997648;28;20167;-75
2022/11/05 10:16:03;;;;;;;1999.90;999.90;;;;;;;9.81;100.00;94275.97;4997818;28;20199;-74
2022/11/05 10:18:36;;;;;;;1999.90;999.90;;;;;;;9.67;100.00;94306.31;4997108;28;20230;-61
2022/11/05 10:21:02;;;;;;;1999.90;999.90;;;;;;;9.69;100.00;94330.41;4996717;28;20245;-61
2022/11/05 10:23:28;;;;;;;1999.90;999.90;;;;;;;9.68;100.00;94373.25;4997199;28;20172;-61
2022/11/05 10:26:07;;;;;;;1999.90;999.90;;;;;;;9.52;100.00;94392.28;4996952;28;20221;-61
2022/11/05 10:28:34;;;;;;;1999.90;999.90;;;;;;;9.53;100.00;94412.91;4997718;28;20209;-61
2022/11/05 10:31:08;;;;;;;1999.90;999.90;;;;;;;9.55;100.00;94413.22;4997306;28;20278;-61
2022/11/05 10:33:43;;;;;;;1999.90;999.90;;;;;;;9.60;100.00;94420.16;4997119;28;20175;-61
2022/11/05 10:36:17;;;;;;;1999.90;999.90;;;;;;;9.67;100.00;94407.16;4996975;28;20232;-59
2022/11/05 10:38:43;;;;;;;1999.90;999.90;;;;;;;9.84;100.00;94397.81;4997542;28;20237;-69
2022/11/05 10:41:28;;;;;;;1999.90;999.90;;;;;;;9.88;100.00;94390.31;4997034;28;20191;-71
2022/11/05 10:44:22;;;;;;;1999.90;999.90;;;;;;;10.08;100.00;94391.09;4998024;28;20167;-69
2022/11/05 10:47:32;;;;;;;1999.90;999.90;;;;;;;10.52;100.00;94391.63;4997136;28;20183;-70
2022/11/05 10:50:14;;;;;;;1999.90;999.90;;;;;;;10.87;100.00;94426.25;4996658;28;20262;-70
2022/11/05 10:53:06;;;;;;;1999.90;999.90;;;;;;;11.03;100.00;94472.69;4997632;28;20173;-70
2022/11/05 10:55:36;;;;;;;1999.90;999.90;;;;;;;11.13;100.00;94529.78;4997600;28;20176;-67
2022/11/05 10:58:14;;;;;;;1999.90;999.90;;;;;;;10.95;100.00;94616.06;4996632;28;20203;-60
2022/11/05 11:00:41;;;;;;;1999.90;999.90;;;;;;;10.80;100.00;94688.59;4997447;28;20175;-60
2022/11/05 11:03:32;;;;;;;1999.90;999.90;;;;;;;10.65;100.00;94750.13;4997431;28;20172;-61
2022/11/05 11:06:06;;;;;;;1999.90;999.90;;;;;;;10.51;100.00;94794.84;4997200;28;20172;-60
2022/11/05 11:08:34;;;;;;;1999.90;999.90;;;;;;;10.52;100.00;94812.00;4997003;28;20207;-60
2022/11/05 11:11:06;;;;;;;1999.90;999.90;;;;;;;10.56;100.00;94845.47;4996922;28;20241;-60
2022/11/05 11:13:49;;;;;;;1999.90;999.90;;;;;;;10.56;100.00;94861.88;4998123;28;20181;-66
2022/11/05 11:16:21;;;;;;;1999.90;999.90;;;;;;;10.50;100.00;94874.44;5001283;28;20183;-60
2022/11/05 11:18:52;;;;;;;1999.90;999.90;;;;;;;10.62;100.00;94888.25;5000297;28;20254;-59
2022/11/05 11:21:21;;;;;;;1999.90;999.90;;;;;;;10.73;100.00;94893.53;5000961;28;20178;-59
2022/11/05 11:23:59;;;;;;;1999.90;999.90;;;;;;;10.81;100.00;94911.38;5000196;28;20236;-59
2022/11/05 11:26:28;;;;;;;1999.90;999.90;;;;;;;10.95;100.00;94919.28;5000076;28;20266;-60
2022/11/05 11:28:56;;;;;;;1999.90;999.90;;;;;;;10.96;100.00;94942.72;5000397;28;20175;-59
2022/11/05 11:31:25;;;;;;;1999.90;999.90;;;;;;;11.09;100.00;94954.56;5000772;28;20180;-58
2022/11/05 11:33:57;;;;;;;1999.90;999.90;;;;;;;11.29;100.00;94969.06;4999921;28;20214;-62
2022/11/05 11:36:26;;;;;;;1999.90;999.90;;;;;;;11.44;100.00;94975.81;5000680;28;20240;-57
2022/11/05 11:38:58;;;;;;;1999.90;999.90;;;;;;;11.53;100.00;95011.59;4999795;28;20223;-60
2022/11/05 11:41:34;;;;;;;1999.90;999.90;;;;;;;11.32;100.00;95042.81;5000300;28;20177;-60
2022/11/05 11:44:15;;;;;;;1999.90;999.90;;;;;;;11.27;100.00;95047.97;4999475;28;20184;-60
2022/11/05 11:46:44;;;;;;;1999.90;999.90;;;;;;;11.07;100.00;95071.75;5000476;28;20179;-60
2022/11/05 11:49:29;;;;;;;1999.90;999.90;;;;;;;10.86;100.00;95093.91;4999825;28;20172;-65